Time;durP1;ratioP1;P1;durP2;ratioP2;P2;SDS_P1;SDS_P2;PMS_P1;PMS_P2;Temp;Humidity;BMP_temperature;BMP_pressure;BME280_temperature;BME280_humidity;BME280_pressure;Samples;Min_cycle;Max_cycle;Signal;HPM_P1;HPM_P2
2023/02/24 00:01:38;;;;;;;12.87;3.70;;;6.00;99.90;;;;;;5038698;28;20250;-61
2023/02/24 00:04:08;;;;;;;13.97;3.07;;;5.80;99.90;;;;;;5035999;28;20767;-61
2023/02/24 00:06:39;;;;;;;11.67;3.17;;;5.90;99.90;;;;;;5039641;28;20707;-61
2023/02/24 00:09:18;;;;;;;13.77;3.33;;;5.90;99.90;;;;;;5041114;28;20205;-61
2023/02/24 00:11:51;;;;;;;12.13;3.43;;;5.80;99.90;;;;;;5040545;28;20247;-62
2023/02/24 00:14:18;;;;;;;10.63;3.20;;;5.80;99.90;;;;;;5040930;28;20200;-61
2023/02/24 00:16:46;;;;;;;10.30;3.13;;;5.90;99.90;;;;;;5035148;28;20530;-61
2023/02/24 00:19:18;;;;;;;12.93;4.27;;;5.90;99.90;;;;;;5039856;28;20657;-61
2023/02/24 00:21:44;;;;;;;10.83;3.47;;;5.90;99.90;;;;;;5039816;28;20203;-61
2023/02/24 00:24:12;;;;;;;12.80;3.33;;;5.90;99.90;;;;;;5041070;28;20287;-64
2023/02/24 00:26:39;;;;;;;13.57;3.43;;;5.80;99.90;;;;;;5040415;28;20233;-62
2023/02/24 00:29:10;;;;;;;8.40;3.90;;;5.80;99.90;;;;;;5040476;28;20293;-62
2023/02/24 00:31:45;;;;;;;8.50;3.07;;;5.90;99.90;;;;;;5040323;28;20727;-61
2023/02/24 00:34:13;;;;;;;9.80;3.30;;;5.90;99.90;;;;;;5039894;28;20217;-61
2023/02/24 00:36:40;;;;;;;10.10;3.00;;;5.90;99.90;;;;;;5034666;28;20234;-61
2023/02/24 00:39:08;;;;;;;10.40;2.83;;;5.90;99.90;;;;;;5034911;28;20198;-61
2023/02/24 00:41:39;;;;;;;12.53;3.03;;;5.90;99.90;;;;;;5040711;28;20217;-61
2023/02/24 00:44:08;;;;;;;11.83;3.00;;;5.90;99.90;;;;;;5040494;28;20235;-61
2023/02/24 00:46:37;;;;;;;12.60;3.37;;;5.90;99.90;;;;;;5039891;28;20270;-61
2023/02/24 00:49:06;;;;;;;10.97;2.53;;;5.90;99.90;;;;;;5040967;28;20532;-62
2023/02/24 00:51:40;;;;;;;8.33;2.90;;;5.90;99.90;;;;;;5045484;28;20220;-61
2023/02/24 00:54:08;;;;;;;8.23;3.00;;;6.00;99.90;;;;;;5039591;28;20210;-61
2023/02/24 00:56:36;;;;;;;8.97;2.70;;;6.00;99.90;;;;;;5035104;28;20212;-61
2023/02/24 00:59:02;;;;;;;14.73;3.20;;;5.90;99.90;;;;;;5040660;28;20258;-61
2023/02/24 01:01:32;;;;;;;7.63;2.63;;;5.90;99.90;;;;;;5038062;28;20202;-61
2023/02/24 01:04:05;;;;;;;12.23;2.90;;;6.00;99.90;;;;;;5034182;28;20237;-61
2023/02/24 01:06:33;;;;;;;16.27;2.73;;;5.80;99.90;;;;;;5036963;28;20296;-61
2023/02/24 01:09:00;;;;;;;9.77;2.93;;;5.90;99.90;;;;;;5039597;28;20211;-65
2023/02/24 01:14:20;;;;;;;8.97;2.47;;;6.00;99.90;;;;;;5039955;28;20826;-61
2023/02/24 01:16:50;;;;;;;15.03;2.80;;;6.00;99.90;;;;;;5039424;28;20205;-61
2023/02/24 01:19:19;;;;;;;8.73;2.23;;;6.00;99.90;;;;;;5039640;28;20303;-61
2023/02/24 01:21:46;;;;;;;8.73;2.40;;;6.00;99.90;;;;;;5039047;28;20227;-63
2023/02/24 01:24:16;;;;;;;16.63;2.67;;;6.10;99.90;;;;;;5054671;28;20253;-63
2023/02/24 01:26:43;;;;;;;8.00;2.60;;;5.90;99.90;;;;;;5038906;28;20247;-63
2023/02/24 01:29:10;;;;;;;11.60;2.57;;;5.60;99.90;;;;;;5039144;28;20243;-63
2023/02/24 01:31:39;;;;;;;5.57;2.87;;;5.60;99.90;;;;;;5033782;28;20404;-63
2023/02/24 01:34:06;;;;;;;11.33;3.03;;;5.60;99.90;;;;;;5054364;28;20219;-63
2023/02/24 01:36:33;;;;;;;10.30;3.17;;;5.70;99.90;;;;;;5038569;28;20236;-63
2023/02/24 01:39:00;;;;;;;8.37;2.53;;;5.40;99.90;;;;;;5039417;28;20291;-63
2023/02/24 01:41:27;;;;;;;8.50;2.80;;;5.30;99.90;;;;;;5038785;28;20233;-63
2023/02/24 01:44:12;;;;;;;11.03;2.80;;;5.40;99.90;;;;;;5038284;28;20630;-63
2023/02/24 01:46:41;;;;;;;15.70;3.50;;;5.20;99.90;;;;;;5037956;28;20255;-63
2023/02/24 01:49:14;;;;;;;6.60;2.47;;;5.20;99.90;;;;;;5046639;28;20656;-62
2023/02/24 01:52:00;;;;;;;11.17;2.70;;;4.90;99.90;;;;;;5036905;28;20580;-62
2023/02/24 01:54:51;;;;;;;9.00;2.70;;;4.80;99.90;;;;;;5039029;28;20661;-61
2023/02/24 01:57:22;;;;;;;8.27;2.87;;;5.00;99.90;;;;;;5038324;28;20686;-63
2023/02/24 01:59:52;;;;;;;9.43;3.03;;;5.10;99.90;;;;;;5038917;28;20519;-63
2023/02/24 02:02:21;;;;;;;13.10;2.57;;;5.10;99.90;;;;;;5037494;28;20203;-64
2023/02/24 02:04:59;;;;;;;8.00;2.33;;;5.10;99.90;;;;;;5038566;28;20204;-64
2023/02/24 02:07:28;;;;;;;14.40;3.13;;;4.90;99.90;;;;;;5036913;28;20564;-63
2023/02/24 02:10:02;;;;;;;12.13;3.07;;;4.80;99.90;;;;;;5039286;28;20200;-64
2023/02/24 02:12:35;;;;;;;7.23;2.57;;;4.70;99.90;;;;;;5037986;28;20197;-63
2023/02/24 02:15:04;;;;;;;9.97;2.93;;;4.70;99.90;;;;;;5037764;28;20299;-63
2023/02/24 02:17:53;;;;;;;7.37;2.37;;;4.70;99.90;;;;;;5038008;28;20209;-63
2023/02/24 02:20:35;;;;;;;7.30;2.47;;;4.50;99.90;;;;;;5032922;28;20262;-64
2023/02/24 02:23:06;;;;;;;9.17;2.53;;;4.60;99.90;;;;;;5038488;28;20196;-63
2023/02/24 02:26:20;;;;;;;6.23;2.43;;;4.40;99.90;;;;;;5038455;28;20270;-63
2023/02/24 02:29:31;;;;;;;10.53;2.90;;;4.20;99.90;;;;;;5027630;28;20212;-64
2023/02/24 02:32:10;;;;;;;9.50;3.20;;;3.90;99.90;;;;;;5032425;28;20290;-63
2023/02/24 02:34:56;;;;;;;10.97;2.80;;;3.90;99.90;;;;;;5033044;28;20291;-63
2023/02/24 02:37:26;;;;;;;8.67;3.00;;;4.00;99.90;;;;;;5036941;28;20263;-63
2023/02/24 02:40:22;;;;;;;9.40;2.27;;;3.90;99.90;;;;;;5039004;28;20671;-63
2023/02/24 02:43:00;;;;;;;11.27;3.30;;;4.00;99.90;;;;;;5033506;28;20200;-63
2023/02/24 02:45:50;;;;;;;8.67;2.93;;;4.20;99.90;;;;;;5037814;28;20717;-62
2023/02/24 02:48:32;;;;;;;12.60;2.77;;;4.30;99.90;;;;;;5033005;28;20203;-63
2023/02/24 02:51:06;;;;;;;9.50;3.23;;;4.10;99.90;;;;;;5037554;28;20224;-60
2023/02/24 02:53:42;;;;;;;11.27;2.70;;;4.00;99.90;;;;;;5037096;28;20215;-61
2023/02/24 02:56:20;;;;;;;10.20;2.80;;;4.00;99.90;;;;;;5045202;28;20200;-60
2023/02/24 02:58:52;;;;;;;9.77;2.87;;;4.10;99.90;;;;;;5038484;28;20245;-60
2023/02/24 03:01:21;;;;;;;8.33;2.30;;;4.20;99.90;;;;;;5036917;28;20571;-60
2023/02/24 03:03:55;;;;;;;10.20;2.43;;;4.10;99.90;;;;;;5038529;28;20260;-60
2023/02/24 03:06:32;;;;;;;13.63;2.53;;;3.90;99.90;;;;;;5036583;28;20291;-60
2023/02/24 03:09:10;;;;;;;8.43;2.53;;;3.80;99.90;;;;;;5052738;28;20279;-59
2023/02/24 03:11:41;;;;;;;9.53;2.60;;;3.90;99.90;;;;;;5038100;28;20220;-60
2023/02/24 03:14:12;;;;;;;9.13;3.03;;;3.80;99.90;;;;;;5037524;28;20298;-60
2023/02/24 03:16:42;;;;;;;5.73;2.23;;;3.90;99.90;;;;;;5031870;28;20304;-60
2023/02/24 03:19:12;;;;;;;6.27;2.43;;;3.80;99.90;;;;;;5038570;28;20649;-61
2023/02/24 03:21:44;;;;;;;8.00;2.53;;;3.70;99.90;;;;;;5037296;28;20234;-60
2023/02/24 03:24:14;;;;;;;6.50;2.70;;;3.60;99.90;;;;;;5035808;28;20226;-61
2023/02/24 03:26:51;;;;;;;8.13;2.57;;;3.70;99.90;;;;;;5037752;28;20208;-60
2023/02/24 03:29:25;;;;;;;7.00;2.43;;;3.80;99.90;;;;;;5036295;28;20255;-60
2023/02/24 03:32:08;;;;;;;7.03;2.50;;;3.90;99.90;;;;;;5037012;28;20301;-61
2023/02/24 03:35:09;;;;;;;8.67;2.60;;;3.90;99.90;;;;;;5040714;28;20666;-60
2023/02/24 03:37:36;;;;;;;9.70;3.27;;;3.90;99.90;;;;;;5034527;28;20255;-60
2023/02/24 03:40:10;;;;;;;7.80;2.23;;;4.00;99.90;;;;;;5036646;28;20291;-60
2023/02/24 03:42:41;;;;;;;14.00;2.97;;;3.80;99.90;;;;;;5035590;28;20204;-60
2023/02/24 03:45:08;;;;;;;8.87;2.50;;;3.70;99.90;;;;;;5041055;28;20307;-60
2023/02/24 03:47:35;;;;;;;11.37;2.77;;;3.80;99.90;;;;;;5041688;28;20202;-59
2023/02/24 03:50:13;;;;;;;6.67;2.80;;;3.90;99.90;;;;;;5040914;28;20235;-60
2023/02/24 03:52:48;;;;;;;10.83;3.17;;;3.80;99.90;;;;;;5035840;28;20199;-60
2023/02/24 03:55:15;;;;;;;9.20;2.43;;;3.90;99.90;;;;;;5041065;28;20226;-61
2023/02/24 03:58:27;;;;;;;11.23;3.33;;;3.60;99.90;;;;;;5041733;28;20200;-62
2023/02/24 04:01:12;;;;;;;6.27;2.27;;;3.60;99.90;;;;;;5039528;28;20215;-63
2023/02/24 04:03:59;;;;;;;8.30;2.30;;;3.30;99.90;;;;;;5041182;28;20339;-63
2023/02/24 04:06:32;;;;;;;7.67;2.00;;;3.30;99.90;;;;;;5039636;28;20302;-60
2023/02/24 04:09:33;;;;;;;8.37;1.93;;;3.10;99.90;;;;;;5040680;28;20242;-61
2023/02/24 04:12:17;;;;;;;6.90;2.20;;;3.10;99.90;;;;;;5041167;28;20718;-62
2023/02/24 04:15:14;;;;;;;7.80;2.00;;;3.00;99.90;;;;;;5040703;28;20265;-61
2023/02/24 04:17:47;;;;;;;11.67;2.40;;;3.20;99.90;;;;;;5034902;28;20766;-62
2023/02/24 04:20:18;;;;;;;6.03;3.03;;;3.30;99.90;;;;;;5039235;28;20204;-62
2023/02/24 04:22:53;;;;;;;5.17;1.87;;;3.20;99.90;;;;;;5040058;28;20632;-61
2023/02/24 04:25:23;;;;;;;8.17;2.53;;;3.20;99.90;;;;;;5041092;28;20751;-61
2023/02/24 04:27:53;;;;;;;7.53;2.30;;;3.20;99.90;;;;;;5036124;28;20207;-61
2023/02/24 04:30:23;;;;;;;7.73;1.83;;;3.20;99.90;;;;;;5040810;28;20204;-61
2023/02/24 04:32:50;;;;;;;7.20;2.23;;;3.30;99.90;;;;;;5039735;28;20556;-61
2023/02/24 04:35:21;;;;;;;8.00;1.70;;;3.40;99.90;;;;;;5039387;28;20581;-61
2023/02/24 04:37:49;;;;;;;6.07;1.60;;;3.50;99.90;;;;;;5047066;28;20327;-61
2023/02/24 04:40:20;;;;;;;5.67;1.53;;;3.60;99.90;;;;;;5040189;28;20208;-62
2023/02/24 04:42:52;;;;;;;7.80;2.43;;;3.60;99.90;;;;;;5041295;28;20645;-61
2023/02/24 04:45:22;;;;;;;9.03;2.27;;;3.30;99.90;;;;;;5039978;28;20208;-61
2023/02/24 04:47:55;;;;;;;8.87;2.07;;;3.20;99.90;;;;;;5039882;28;20213;-62
2023/02/24 04:50:24;;;;;;;9.07;2.40;;;3.40;99.90;;;;;;5038766;28;20210;-61
2023/02/24 04:52:53;;;;;;;10.70;2.57;;;3.40;99.90;;;;;;5039452;28;20250;-61
2023/02/24 04:55:22;;;;;;;12.20;2.60;;;3.70;99.90;;;;;;5054859;28;20208;-61
2023/02/24 04:57:52;;;;;;;8.83;2.30;;;3.70;99.90;;;;;;5040349;28;20287;-63
2023/02/24 05:00:25;;;;;;;6.53;2.10;;;3.40;99.90;;;;;;5039436;28;20210;-62
2023/02/24 05:02:55;;;;;;;6.57;2.00;;;3.20;99.90;;;;;;5034267;28;20268;-62
2023/02/24 05:05:26;;;;;;;7.00;2.17;;;3.10;99.90;;;;;;5039583;28;20235;-61
2023/02/24 05:07:56;;;;;;;8.70;2.63;;;3.10;99.90;;;;;;5038793;28;20202;-61
2023/02/24 05:10:26;;;;;;;10.90;2.40;;;3.10;99.90;;;;;;5039776;28;20211;-62
2023/02/24 05:12:58;;;;;;;4.60;2.07;;;3.20;99.90;;;;;;5039366;28;20574;-66
2023/02/24 05:15:31;;;;;;;10.10;2.70;;;3.20;99.90;;;;;;5039941;28;20705;-61
2023/02/24 05:18:06;;;;;;;9.10;2.50;;;3.20;99.90;;;;;;5038207;28;20203;-61
2023/02/24 05:23:30;;;;;;;11.20;3.00;;;3.10;99.90;;;;;;5040027;28;20207;-61
2023/02/24 05:25:58;;;;;;;13.47;3.10;;;3.40;99.90;;;;;;5038048;28;20307;-61
2023/02/24 05:28:30;;;;;;;11.23;3.07;;;3.40;99.90;;;;;;5039967;28;20603;-61
2023/02/24 05:31:09;;;;;;;10.03;3.67;;;3.60;99.90;;;;;;5033367;28;20694;-62
2023/02/24 05:33:37;;;;;;;4.73;2.60;;;3.70;99.90;;;;;;5039297;28;20287;-61
2023/02/24 05:36:07;;;;;;;7.87;2.30;;;3.90;99.90;;;;;;5038382;28;20231;-62
2023/02/24 05:38:36;;;;;;;10.10;2.80;;;3.80;99.90;;;;;;5039220;28;20302;-61
2023/02/24 05:41:18;;;;;;;12.27;2.37;;;3.70;99.90;;;;;;5039602;28;20212;-61
2023/02/24 05:43:52;;;;;;;11.50;3.33;;;3.60;99.90;;;;;;5038493;28;20235;-61
2023/02/24 05:46:21;;;;;;;5.43;2.50;;;3.60;99.90;;;;;;5039037;28;20705;-62
2023/02/24 05:48:55;;;;;;;10.10;2.30;;;3.40;99.90;;;;;;5034088;28;20717;-61
2023/02/24 05:51:27;;;;;;;7.70;2.27;;;3.40;99.90;;;;;;5036697;28;20743;-61
2023/02/24 05:53:54;;;;;;;11.13;2.37;;;3.50;99.90;;;;;;5039163;28;20302;-60
2023/02/24 05:56:24;;;;;;;5.30;2.13;;;3.40;99.90;;;;;;5037655;28;20207;-63
2023/02/24 05:59:00;;;;;;;6.57;2.37;;;3.30;99.90;;;;;;5038986;28;20208;-63
2023/02/24 06:01:33;;;;;;;8.73;2.00;;;3.20;99.90;;;;;;5038208;28;20656;-63
2023/02/24 06:04:05;;;;;;;11.33;2.30;;;3.20;99.90;;;;;;5039166;28;20268;-63
2023/02/24 06:06:41;;;;;;;7.33;2.57;;;3.20;99.90;;;;;;5037526;28;20246;-61
2023/02/24 06:09:11;;;;;;;12.57;3.20;;;3.20;99.90;;;;;;5039495;28;20215;-61
2023/02/24 06:11:43;;;;;;;6.57;2.33;;;3.40;99.90;;;;;;5038588;28;20314;-61
2023/02/24 06:14:11;;;;;;;6.77;1.53;;;3.30;99.90;;;;;;5038175;28;20196;-60
2023/02/24 06:16:40;;;;;;;8.87;2.43;;;3.30;99.90;;;;;;5038110;28;20691;-60
2023/02/24 06:19:09;;;;;;;8.57;2.07;;;3.30;99.90;;;;;;5036879;28;20249;-60
2023/02/24 06:21:40;;;;;;;8.80;1.90;;;3.30;99.90;;;;;;5038038;28;20212;-60
2023/02/24 06:24:14;;;;;;;9.20;2.07;;;3.30;99.90;;;;;;5038676;28;20291;-61
2023/02/24 06:26:42;;;;;;;11.67;2.20;;;3.30;99.90;;;;;;5033108;28;20208;-60
2023/02/24 06:29:16;;;;;;;7.90;2.00;;;3.20;99.90;;;;;;5038481;28;20212;-60
2023/02/24 06:31:43;;;;;;;11.80;2.37;;;3.30;99.90;;;;;;5038369;28;20224;-60
2023/02/24 06:34:17;;;;;;;7.87;2.07;;;3.20;99.90;;;;;;5037416;28;20204;-61
2023/02/24 06:36:45;;;;;;;8.80;2.17;;;3.20;99.90;;;;;;5037251;28;20243;-60
2023/02/24 06:39:13;;;;;;;7.63;1.87;;;3.20;99.90;;;;;;5038232;28;20240;-60
2023/02/24 06:41:41;;;;;;;4.40;1.87;;;3.10;99.90;;;;;;5038283;28;20205;-61
2023/02/24 06:44:08;;;;;;;5.83;1.47;;;3.20;99.90;;;;;;5038665;28;20682;-60
2023/02/24 06:46:35;;;;;;;8.57;2.00;;;3.10;99.90;;;;;;5037045;28;20258;-60
2023/02/24 06:49:02;;;;;;;4.30;2.03;;;3.20;99.90;;;;;;5039015;28;20203;-60
2023/02/24 06:51:29;;;;;;;7.87;2.10;;;3.30;99.90;;;;;;5036125;28;20693;-59
2023/02/24 06:53:58;;;;;;;11.67;1.90;;;3.20;99.90;;;;;;5037725;28;20236;-60
2023/02/24 06:56:26;;;;;;;9.37;2.00;;;3.30;99.90;;;;;;5032279;28;20231;-59
2023/02/24 06:58:55;;;;;;;9.77;1.97;;;3.20;99.90;;;;;;5038772;28;20214;-60
2023/02/24 07:01:24;;;;;;;6.03;1.93;;;3.20;99.90;;;;;;5026966;28;20227;-59
2023/02/24 07:04:16;;;;;;;6.97;1.73;;;3.20;99.90;;;;;;5038026;28;20737;-59
2023/02/24 07:06:51;;;;;;;9.80;1.57;;;3.20;99.90;;;;;;5035938;28;20494;-59
2023/02/24 07:09:22;;;;;;;11.13;2.33;;;3.20;99.90;;;;;;5042370;28;20245;-60
2023/02/24 07:11:52;;;;;;;8.53;2.00;;;3.30;99.90;;;;;;5042821;28;20308;-59
2023/02/24 07:14:21;;;;;;;8.43;1.60;;;3.40;99.90;;;;;;5041783;28;20206;-59
2023/02/24 07:16:52;;;;;;;8.17;1.90;;;3.40;99.90;;;;;;5057246;28;20232;-59
2023/02/24 07:19:25;;;;;;;5.50;1.73;;;3.40;99.90;;;;;;5036798;28;21108;-59
2023/02/24 07:22:00;;;;;;;7.50;2.23;;;3.40;99.90;;;;;;5039266;28;20225;-59
2023/02/24 07:24:34;;;;;;;5.30;1.57;;;3.50;99.90;;;;;;5041917;28;20269;-59
2023/02/24 07:27:20;;;;;;;9.33;2.10;;;3.60;99.90;;;;;;5048172;28;20676;-59
2023/02/24 07:29:50;;;;;;;4.10;1.47;;;3.70;99.90;;;;;;5037851;28;20561;-58
2023/02/24 07:32:24;;;;;;;4.57;1.67;;;3.70;99.90;;;;;;5040837;28;20231;-59
2023/02/24 07:34:51;;;;;;;9.93;1.60;;;3.70;99.90;;;;;;5036908;28;20207;-60
2023/02/24 07:37:19;;;;;;;7.17;1.67;;;3.70;99.90;;;;;;5039831;28;20261;-59
2023/02/24 07:39:46;;;;;;;6.37;1.50;;;3.70;99.90;;;;;;5042545;28;20557;-60
2023/02/24 07:42:13;;;;;;;7.77;1.50;;;3.70;99.90;;;;;;5040605;28;20638;-59
2023/02/24 07:44:43;;;;;;;5.07;1.37;;;3.80;99.90;;;;;;5041235;28;20637;-58
2023/02/24 07:47:10;;;;;;;7.03;1.67;;;3.80;99.90;;;;;;5040840;28;20233;-59
2023/02/24 07:49:38;;;;;;;5.90;1.37;;;3.90;99.90;;;;;;5040828;28;20628;-59
2023/02/24 07:52:06;;;;;;;7.90;1.40;;;4.00;99.90;;;;;;5038798;28;20215;-59
2023/02/24 07:54:34;;;;;;;7.37;1.33;;;4.00;99.90;;;;;;5036752;28;20214;-59
2023/02/24 07:57:01;;;;;;;8.10;1.27;;;4.10;99.90;;;;;;5040559;28;20259;-58
2023/02/24 07:59:31;;;;;;;6.20;1.40;;;4.20;99.90;;;;;;5041676;28;20297;-59
2023/02/24 08:02:00;;;;;;;3.33;1.00;;;4.10;99.90;;;;;;5035016;28;20716;-59
2023/02/24 08:04:38;;;;;;;8.53;1.33;;;4.10;99.90;;;;;;5040791;28;20252;-59
2023/02/24 08:07:13;;;;;;;6.10;1.17;;;4.30;99.90;;;;;;5038178;28;20240;-59
2023/02/24 08:10:08;;;;;;;5.07;1.70;;;4.20;99.90;;;;;;5040253;28;20227;-59
2023/02/24 08:12:33;;;;;;;6.93;1.57;;;4.20;99.90;;;;;;5040613;28;20268;-59
2023/02/24 08:15:15;;;;;;;8.10;1.70;;;4.40;99.90;;;;;;5040880;28;20287;-61
2023/02/24 08:17:46;;;;;;;6.23;2.47;;;4.50;99.90;;;;;;5039930;28;20198;-60
2023/02/24 08:22:50;;;;;;;4.50;1.20;;;4.60;99.90;;;;;;5040369;28;20273;-59
2023/02/24 08:25:21;;;;;;;4.40;1.20;;;4.50;99.90;;;;;;5041247;28;20228;-59
2023/02/24 08:27:55;;;;;;;5.37;1.20;;;4.60;99.90;;;;;;5040430;28;20213;-60
2023/02/24 08:30:43;;;;;;;10.13;1.60;;;4.60;99.90;;;;;;5039854;28;20700;-59
2023/02/24 08:33:21;;;;;;;9.50;1.53;;;4.80;99.90;;;;;;5039512;28;20218;-59
2023/02/24 08:35:59;;;;;;;7.77;1.30;;;4.80;99.90;;;;;;5038182;28;20234;-60
2023/02/24 08:38:38;;;;;;;4.47;1.10;;;4.90;99.90;;;;;;5040252;28;20211;-59
2023/02/24 08:41:12;;;;;;;8.47;1.30;;;4.90;99.90;;;;;;5034684;28;20749;-60
2023/02/24 08:43:39;;;;;;;7.53;1.53;;;4.90;99.90;;;;;;5035229;28;20730;-60
2023/02/24 08:46:19;;;;;;;5.83;1.50;;;4.90;99.90;;;;;;5039169;28;20246;-59
2023/02/24 08:48:50;;;;;;;9.77;1.73;;;4.90;99.90;;;;;;5039767;28;20210;-59
2023/02/24 08:51:35;;;;;;;6.50;1.40;;;4.90;99.90;;;;;;5039437;28;20242;-60
2023/02/24 08:54:14;;;;;;;3.70;1.30;;;4.90;99.90;;;;;;5040855;28;20714;-59
2023/02/24 08:56:54;;;;;;;5.93;1.40;;;4.80;99.90;;;;;;5037462;28;20201;-59
2023/02/24 08:59:48;;;;;;;7.30;1.23;;;4.90;99.90;;;;;;5040625;28;20328;-59
2023/02/24 09:04:53;;;;;;;9.93;2.30;;;5.00;99.90;;;;;;5039547;28;20321;-59
2023/02/24 09:07:27;;;;;;;5.93;1.60;;;5.00;99.90;;;;;;5037787;28;20259;-60
2023/02/24 09:09:57;;;;;;;6.87;1.60;;;5.10;99.90;;;;;;5040740;28;20703;-60
2023/02/24 09:12:27;;;;;;;9.60;1.43;;;5.10;99.90;;;;;;5040224;28;20306;-63
2023/02/24 09:15:03;;;;;;;5.33;1.30;;;5.10;99.90;;;;;;5040306;28;20283;-60
2023/02/24 09:17:48;;;;;;;6.90;1.30;;;5.10;99.90;;;;;;5039436;28;20200;-60
2023/02/24 09:23:07;;;;;;;6.30;1.60;;;5.10;99.90;;;;;;5033626;28;20208;-60
2023/02/24 09:25:42;;;;;;;7.23;1.43;;;5.30;99.90;;;;;;5033777;28;20293;-61
2023/02/24 09:28:25;;;;;;;3.33;1.27;;;5.30;99.90;;;;;;5040444;28;20209;-61
2023/02/24 09:30:54;;;;;;;10.50;1.63;;;5.30;99.90;;;;;;5038902;28;20208;-61
2023/02/24 09:33:37;;;;;;;7.17;2.37;;;5.40;99.90;;;;;;5039893;28;20215;-61
2023/02/24 09:36:18;;;;;;;10.90;1.83;;;5.60;99.90;;;;;;5038722;28;20574;-61
2023/02/24 09:44:43;;;;;;;6.80;2.10;;;5.70;99.90;;;;;;5039556;28;20208;-61
2023/02/24 09:47:38;;;;;;;8.17;1.77;;;5.60;99.90;;;;;;5037994;28;20292;-61
2023/02/24 09:50:29;;;;;;;9.80;1.83;;;5.60;99.90;;;;;;5032728;28;20217;-61
2023/02/24 09:53:17;;;;;;;9.90;1.43;;;5.60;99.90;;;;;;5038541;28;20286;-62
2023/02/24 09:56:05;;;;;;;9.97;1.80;;;5.80;99.90;;;;;;5037933;28;20216;-61
2023/02/24 09:58:46;;;;;;;7.93;1.30;;;5.70;99.90;;;;;;5038337;28;20274;-60
2023/02/24 10:01:32;;;;;;;7.93;1.87;;;5.70;99.90;;;;;;5037137;28;20261;-60
2023/02/24 10:04:12;;;;;;;7.73;1.90;;;5.80;99.90;;;;;;5038619;28;20279;-64
2023/02/24 10:06:49;;;;;;;5.80;1.93;;;5.90;99.90;;;;;;5037132;28;20204;-60
2023/02/24 10:09:25;;;;;;;6.90;1.80;;;5.80;99.90;;;;;;5044635;28;20243;-61
2023/02/24 10:12:03;;;;;;;7.17;1.83;;;5.80;99.90;;;;;;5038841;28;20208;-60
2023/02/24 10:14:37;;;;;;;8.37;1.90;;;5.80;99.90;;;;;;5037900;28;20204;-60
2023/02/24 10:17:24;;;;;;;8.33;1.70;;;5.80;99.90;;;;;;5038469;28;20200;-62
2023/02/24 10:19:59;;;;;;;8.60;2.00;;;5.80;99.90;;;;;;5041196;28;20510;-62
2023/02/24 10:22:49;;;;;;;4.47;1.93;;;5.90;99.90;;;;;;5037397;28;20219;-60
2023/02/24 10:25:34;;;;;;;6.13;2.00;;;5.90;99.90;;;;;;5033919;28;20220;-60
2023/02/24 10:28:18;;;;;;;4.40;2.10;;;6.00;99.90;;;;;;5038715;28;20212;-60
2023/02/24 10:31:08;;;;;;;9.67;1.77;;;5.90;99.90;;;;;;5037257;28;20221;-60
2023/02/24 10:33:44;;;;;;;6.83;2.10;;;5.80;99.90;;;;;;5038379;28;20825;-60
2023/02/24 10:36:17;;;;;;;10.00;2.00;;;6.00;99.90;;;;;;5037379;28;20235;-60
2023/02/24 10:38:45;;;;;;;3.80;1.93;;;6.00;99.90;;;;;;5038467;28;20201;-60
2023/02/24 10:41:13;;;;;;;7.40;2.30;;;6.00;99.90;;;;;;5038769;28;20701;-60
2023/02/24 10:43:52;;;;;;;9.03;1.93;;;6.20;99.90;;;;;;5037826;28;20205;-61
2023/02/24 10:46:32;;;;;;;9.80;2.17;;;6.30;99.90;;;;;;5037789;28;20577;-61
2023/02/24 10:49:15;;;;;;;8.40;2.27;;;6.10;99.90;;;;;;5038464;28;20288;-61
2023/02/24 10:51:50;;;;;;;10.07;2.50;;;6.30;99.90;;;;;;5031446;28;20204;-61
2023/02/24 10:54:33;;;;;;;5.43;1.83;;;6.30;99.90;;;;;;5038831;28;20211;-61
2023/02/24 10:57:35;;;;;;;9.17;2.50;;;6.30;99.90;;;;;;5032943;28;20204;-62
2023/02/24 11:03:07;;;;;;;6.37;2.10;;;6.30;99.90;;;;;;5037548;28;20224;-62
2023/02/24 11:05:55;;;;;;;8.40;2.53;;;6.30;99.90;;;;;;5036966;28;20669;-61
2023/02/24 11:08:35;;;;;;;7.30;2.40;;;6.30;99.90;;;;;;5038354;28;20678;-61
2023/02/24 11:11:29;;;;;;;6.37;2.30;;;6.40;99.90;;;;;;5037142;28;20215;-61
2023/02/24 11:19:49;;;;;;;10.47;2.83;;;6.30;99.90;;;;;;5032701;28;20303;-61
2023/02/24 11:22:20;;;;;;;4.60;2.43;;;6.40;99.90;;;;;;5030441;28;20323;-61
2023/02/24 11:24:49;;;;;;;7.87;2.90;;;6.40;99.90;;;;;;5038454;28;20250;-61
2023/02/24 11:27:20;;;;;;;9.20;3.07;;;6.30;99.90;;;;;;5032494;28;20267;-62
2023/02/24 11:30:13;;;;;;;5.50;2.80;;;6.40;99.90;;;;;;5038604;28;20213;-61
2023/02/24 11:33:11;;;;;;;9.13;3.57;;;6.40;99.90;;;;;;5030021;28;20307;-60
2023/02/24 11:35:59;;;;;;;6.30;2.60;;;6.40;99.90;;;;;;5031836;28;20212;-61
2023/02/24 11:38:46;;;;;;;5.60;2.80;;;6.30;99.90;;;;;;5037862;28;20374;-62
2023/02/24 11:41:28;;;;;;;9.97;2.63;;;6.40;99.90;;;;;;5037296;28;20212;-61
2023/02/24 11:44:21;;;;;;;7.80;2.73;;;6.40;99.90;;;;;;5033017;28;20248;-61
2023/02/24 11:46:56;;;;;;;8.90;3.63;;;6.40;99.90;;;;;;5037514;28;20266;-60
2023/02/24 11:49:44;;;;;;;5.83;2.93;;;6.30;99.90;;;;;;5033227;28;20208;-61
2023/02/24 11:52:17;;;;;;;14.43;4.13;;;6.30;99.90;;;;;;5035895;28;20283;-61
2023/02/24 11:54:49;;;;;;;6.83;3.00;;;6.40;99.90;;;;;;5032506;28;20196;-60
2023/02/24 11:57:22;;;;;;;6.03;2.67;;;6.30;99.90;;;;;;5040956;28;20200;-61
2023/02/24 12:00:00;;;;;;;8.03;3.03;;;6.20;99.90;;;;;;5041385;28;21434;-60
2023/02/24 12:02:43;;;;;;;7.00;2.63;;;6.20;99.90;;;;;;5035676;28;20207;-62
2023/02/24 12:05:25;;;;;;;8.60;2.70;;;6.10;99.90;;;;;;5041007;28;20604;-60
2023/02/24 12:08:27;;;;;;;9.33;2.33;;;6.10;99.90;;;;;;5040189;28;21136;-61
2023/02/24 12:11:10;;;;;;;6.37;2.63;;;6.10;99.90;;;;;;5039446;28;20207;-60
2023/02/24 12:14:00;;;;;;;7.43;2.17;;;6.10;99.90;;;;;;5041344;28;20220;-61
2023/02/24 12:16:32;;;;;;;6.80;2.73;;;6.10;99.90;;;;;;5038096;28;20219;-60
2023/02/24 12:19:24;;;;;;;7.40;2.87;;;6.10;99.90;;;;;;5041642;28;20208;-61
2023/02/24 12:22:01;;;;;;;6.10;2.20;;;6.00;99.90;;;;;;5034939;28;20674;-61
2023/02/24 12:24:28;;;;;;;9.03;2.63;;;6.10;99.90;;;;;;5040680;28;20204;-61
2023/02/24 12:27:24;;;;;;;11.07;2.40;;;6.00;99.90;;;;;;5040873;28;20214;-61
2023/02/24 12:29:56;;;;;;;5.97;2.50;;;6.00;99.90;;;;;;5041026;28;20296;-61
2023/02/24 12:32:46;;;;;;;5.17;2.10;;;6.10;99.90;;;;;;5040052;28;20334;-61
2023/02/24 12:35:21;;;;;;;9.27;2.33;;;6.00;99.90;;;;;;5036962;28;20676;-61
2023/02/24 12:37:49;;;;;;;7.00;2.33;;;6.10;99.90;;;;;;5040343;28;20274;-61
2023/02/24 12:40:54;;;;;;;4.90;2.40;;;6.10;99.90;;;;;;5039366;28;20215;-61
2023/02/24 12:43:45;;;;;;;6.33;2.23;;;6.10;99.90;;;;;;5040623;28;20216;-61
2023/02/24 12:46:32;;;;;;;6.47;2.30;;;6.10;99.90;;;;;;5040190;28;20671;-60
2023/02/24 12:49:09;;;;;;;5.73;2.40;;;6.20;99.90;;;;;;5036114;28;20556;-61
2023/02/24 12:51:45;;;;;;;5.90;2.47;;;6.30;99.90;;;;;;5038623;28;20195;-60
2023/02/24 12:54:32;;;;;;;5.03;2.20;;;6.40;99.90;;;;;;5040131;28;20220;-60
2023/02/24 12:57:10;;;;;;;3.87;2.30;;;6.40;99.90;;;;;;5036938;28;20271;-60
2023/02/24 12:59:38;;;;;;;3.83;2.30;;;6.50;99.90;;;;;;5040157;28;20311;-62
2023/02/24 13:02:36;;;;;;;6.30;2.20;;;6.40;99.90;;;;;;5033676;28;20284;-60
2023/02/24 13:05:19;;;;;;;3.57;1.97;;;6.40;99.90;;;;;;5038104;28;20245;-61
2023/02/24 13:07:58;;;;;;;6.13;2.53;;;6.70;99.90;;;;;;5038191;28;20565;-61
2023/02/24 13:10:33;;;;;;;4.43;2.47;;;6.60;99.90;;;;;;5039738;28;20209;-61
2023/02/24 13:13:14;;;;;;;5.33;2.10;;;6.60;99.90;;;;;;5039369;28;20308;-60
2023/02/24 13:15:57;;;;;;;5.03;2.07;;;6.60;99.90;;;;;;5035792;28;20255;-61
2023/02/24 13:18:26;;;;;;;2.17;1.97;;;6.60;99.90;;;;;;5040047;28;20208;-60
2023/02/24 13:21:10;;;;;;;6.73;2.20;;;6.60;99.90;;;;;;5038054;28;20251;-61
2023/02/24 13:23:41;;;;;;;4.30;2.47;;;6.50;99.90;;;;;;5035556;28;20204;-60
2023/02/24 13:26:09;;;;;;;2.80;1.80;;;6.50;99.90;;;;;;5038884;28;20212;-60
2023/02/24 13:28:37;;;;;;;2.63;1.77;;;6.50;99.90;;;;;;5039968;28;20217;-60
2023/02/24 13:31:10;;;;;;;5.33;2.57;;;6.60;99.90;;;;;;5038434;28;20221;-61
2023/02/24 13:33:43;;;;;;;3.10;2.20;;;6.70;99.90;;;;;;5034539;28;20228;-61
2023/02/24 13:36:21;;;;;;;4.90;2.47;;;6.90;99.90;;;;;;5038871;28;20268;-61
2023/02/24 13:39:06;;;;;;;8.30;2.93;;;7.10;99.90;;;;;;5035175;28;20228;-61
2023/02/24 13:41:39;;;;;;;7.20;3.40;;;7.20;99.90;;;;;;5039306;28;20202;-61
2023/02/24 13:44:20;;;;;;;6.33;3.73;;;7.10;99.90;;;;;;5046818;28;20221;-61
2023/02/24 13:47:26;;;;;;;7.40;4.47;;;7.20;99.90;;;;;;5038113;28;20208;-61
2023/02/24 13:49:59;;;;;;;7.53;4.53;;;7.30;99.90;;;;;;5034340;28;20204;-61
2023/02/24 13:53:14;;;;;;;8.33;5.37;;;7.70;99.90;;;;;;5033791;28;20512;-61
2023/02/24 13:56:08;;;;;;;9.97;5.20;;;7.90;99.90;;;;;;5031142;28;20297;-61
2023/02/24 13:59:00;;;;;;;9.40;5.20;;;7.80;99.90;;;;;;5038772;28;20575;-61
2023/02/24 14:01:29;;;;;;;10.30;5.30;;;7.60;99.90;;;;;;5038546;28;20596;-61
2023/02/24 14:04:17;;;;;;;12.00;6.40;;;7.60;99.90;;;;;;5039145;28;20248;-61
2023/02/24 14:06:50;;;;;;;9.20;6.20;;;7.50;99.90;;;;;;5044208;28;20284;-61
2023/02/24 14:09:25;;;;;;;11.87;6.63;;;7.40;99.90;;;;;;5036577;28;20271;-61